Time;durP1;ratioP1;P1;durP2;ratioP2;P2;SDS_P1;SDS_P2;PMS_P1;PMS_P2;Temp;Humidity;BMP_temperature;BMP_pressure;BME280_temperature;BME280_humidity;BME280_pressure;Samples;Min_cycle;Max_cycle;Signal;HPM_P1;HPM_P2
2022/04/23 00:02:17;;;;;;;15.43;13.13;;;14.20;57.00;;;;;;7376097;19;20376;-48
2022/04/23 00:04:48;;;;;;;16.97;13.27;;;14.00;57.50;;;;;;7375702;19;20372;-48
2022/04/23 00:07:23;;;;;;;13.43;11.70;;;14.00;57.80;;;;;;7374407;19;20380;-48
2022/04/23 00:09:53;;;;;;;13.87;12.37;;;13.90;58.10;;;;;;7376339;19;20909;-48
2022/04/23 00:12:23;;;;;;;15.77;12.67;;;13.90;58.20;;;;;;7374173;19;21032;-48
2022/04/23 00:14:53;;;;;;;16.13;12.80;;;13.80;58.30;;;;;;7377609;19;20388;-48
2022/04/23 00:17:25;;;;;;;15.47;12.70;;;13.80;58.50;;;;;;7379801;19;20388;-48
2022/04/23 00:19:56;;;;;;;16.57;12.43;;;13.50;59.10;;;;;;7371485;19;20901;-49
2022/04/23 00:22:31;;;;;;;13.93;12.20;;;13.50;59.30;;;;;;7372152;19;20436;-48
2022/04/23 00:25:01;;;;;;;15.20;11.00;;;13.10;60.70;;;;;;7374683;19;20453;-49
2022/04/23 00:27:32;;;;;;;13.50;12.00;;;13.30;60.40;;;;;;7375840;19;21004;-49
2022/04/23 00:30:02;;;;;;;16.23;12.80;;;13.10;61.40;;;;;;7373902;19;20991;-48
2022/04/23 00:32:34;;;;;;;12.40;11.10;;;13.30;60.70;;;;;;7377177;19;20387;-48
2022/04/23 00:35:03;;;;;;;17.40;13.00;;;13.50;61.10;;;;;;7372049;19;20388;-48
2022/04/23 00:37:35;;;;;;;16.27;12.73;;;13.20;60.80;;;;;;7376470;19;20445;-48
2022/04/23 00:40:16;;;;;;;11.43;10.30;;;13.20;61.40;;;;;;7376405;19;20753;-48
2022/04/23 00:42:52;;;;;;;15.60;12.10;;;13.30;61.50;;;;;;7372917;19;20904;-48
2022/04/23 00:45:22;;;;;;;12.40;9.90;;;13.50;60.90;;;;;;7371279;19;20919;-48
2022/04/23 00:47:52;;;;;;;12.17;10.47;;;13.60;60.50;;;;;;7374855;19;20376;-48
2022/04/23 00:50:23;;;;;;;15.03;11.23;;;13.60;60.00;;;;;;7377242;19;20375;-48
2022/04/23 00:53:00;;;;;;;12.93;10.13;;;13.60;60.00;;;;;;7376466;19;20934;-48
2022/04/23 00:55:35;;;;;;;12.97;10.30;;;13.60;60.80;;;;;;7378194;19;20950;-49
2022/04/23 00:58:07;;;;;;;12.40;9.47;;;13.50;61.30;;;;;;7374155;19;20379;-48
2022/04/23 01:00:41;;;;;;;12.87;10.60;;;13.50;61.30;;;;;;7373023;19;20383;-48
2022/04/23 01:03:13;;;;;;;15.17;10.60;;;13.50;61.50;;;;;;7373156;19;20952;-48
2022/04/23 01:05:46;;;;;;;12.33;10.30;;;13.40;61.80;;;;;;7378047;19;20377;-48
2022/04/23 01:08:22;;;;;;;12.20;9.60;;;13.20;63.00;;;;;;7374258;19;21009;-48
2022/04/23 01:10:56;;;;;;;10.90;9.80;;;13.10;64.10;;;;;;7375617;19;20724;-48
2022/04/23 01:13:25;;;;;;;10.73;9.63;;;13.00;64.10;;;;;;7371274;19;20368;-48
2022/04/23 01:16:02;;;;;;;11.60;10.00;;;13.00;65.00;;;;;;7376684;19;20391;-48
2022/04/23 01:18:36;;;;;;;11.47;10.20;;;13.00;65.00;;;;;;7374497;19;20436;-49
2022/04/23 01:21:13;;;;;;;10.63;9.43;;;13.00;64.90;;;;;;7374104;19;20384;-48
2022/04/23 01:23:43;;;;;;;11.23;9.50;;;13.00;65.00;;;;;;7375314;19;20370;-49
2022/04/23 01:26:14;;;;;;;10.23;9.17;;;13.20;64.70;;;;;;7375021;19;20383;-48
2022/04/23 01:28:43;;;;;;;11.00;9.00;;;13.20;64.50;;;;;;7373293;19;20380;-48
2022/04/23 01:31:13;;;;;;;10.50;8.60;;;13.30;64.00;;;;;;7370935;19;20383;-48
2022/04/23 01:33:42;;;;;;;12.87;9.93;;;13.50;63.10;;;;;;7375589;19;20443;-48
2022/04/23 01:36:18;;;;;;;11.30;10.10;;;13.70;63.30;;;;;;7374473;19;20419;-49
2022/04/23 01:38:50;;;;;;;12.70;9.10;;;13.70;62.30;;;;;;7378705;19;20384;-48
2022/04/23 01:41:19;;;;;;;11.67;9.47;;;13.70;62.00;;;;;;7372959;19;20376;-49
2022/04/23 01:43:49;;;;;;;12.60;10.60;;;13.70;62.30;;;;;;7375206;19;20411;-48
2022/04/23 01:46:18;;;;;;;12.10;10.03;;;13.70;62.40;;;;;;7373110;19;20509;-48
2022/04/23 01:48:49;;;;;;;12.50;10.03;;;13.50;63.10;;;;;;7374870;19;20755;-48
2022/04/23 01:51:21;;;;;;;12.80;9.80;;;13.50;63.40;;;;;;7374732;19;20933;-48
2022/04/23 01:53:51;;;;;;;10.57;9.20;;;13.50;63.10;;;;;;7370773;19;20379;-48
2022/04/23 01:56:22;;;;;;;10.90;9.67;;;13.50;63.00;;;;;;7373788;19;20408;-48
2022/04/23 01:58:52;;;;;;;11.37;9.80;;;13.50;63.10;;;;;;7369642;19;20368;-49
2022/04/23 02:01:21;;;;;;;11.97;10.20;;;13.60;63.00;;;;;;7373185;19;20368;-47
2022/04/23 02:03:51;;;;;;;12.70;10.07;;;13.50;63.10;;;;;;7375339;19;20921;-49
2022/04/23 02:06:24;;;;;;;12.63;10.07;;;13.50;63.20;;;;;;7373328;19;20770;-49
2022/04/23 02:08:53;;;;;;;11.87;10.17;;;13.50;63.30;;;;;;7373899;19;20773;-48
2022/04/23 02:11:22;;;;;;;12.13;9.80;;;13.40;63.60;;;;;;7375421;19;20915;-48
2022/04/23 02:13:52;;;;;;;12.93;11.03;;;13.20;64.50;;;;;;7368339;19;20432;-48
2022/04/23 02:16:25;;;;;;;12.00;10.33;;;12.90;66.00;;;;;;7372329;19;20385;-48
2022/04/23 02:18:57;;;;;;;12.20;10.33;;;13.00;65.90;;;;;;7372557;19;20440;-48
2022/04/23 02:21:32;;;;;;;11.70;9.90;;;13.10;65.70;;;;;;7371665;19;20993;-39
2022/04/23 02:24:03;;;;;;;14.77;11.43;;;13.10;65.70;;;;;;7364251;19;20438;-38
2022/04/23 02:26:33;;;;;;;14.10;11.70;;;13.00;66.30;;;;;;7373424;19;20405;-38
2022/04/23 02:29:02;;;;;;;12.63;10.77;;;12.80;67.20;;;;;;7372280;19;20412;-38
2022/04/23 02:31:32;;;;;;;16.00;12.90;;;12.80;67.50;;;;;;7369823;19;20426;-38
2022/04/23 02:34:04;;;;;;;12.57;11.23;;;12.70;68.50;;;;;;7374397;19;20380;-38
2022/04/23 02:36:38;;;;;;;14.90;12.30;;;12.70;68.50;;;;;;7366778;19;20481;-39
2022/04/23 02:39:08;;;;;;;13.63;11.20;;;12.80;68.30;;;;;;7368619;19;20447;-39
2022/04/23 02:41:37;;;;;;;13.70;10.60;;;12.90;67.60;;;;;;7370920;19;20384;-38
2022/04/23 02:44:09;;;;;;;14.10;12.40;;;13.00;67.30;;;;;;7370540;19;20379;-38
2022/04/23 02:46:40;;;;;;;14.43;12.90;;;13.00;67.40;;;;;;7372870;19;20484;-39
2022/04/23 02:49:10;;;;;;;13.80;11.77;;;13.00;67.20;;;;;;7367269;19;20738;-38
2022/04/23 02:51:43;;;;;;;17.03;11.90;;;12.90;67.20;;;;;;7373949;19;20428;-38
2022/04/23 02:54:12;;;;;;;15.03;12.60;;;12.80;67.90;;;;;;7371973;19;20420;-38
2022/04/23 02:56:42;;;;;;;15.60;13.20;;;12.80;68.20;;;;;;7368858;19;20452;-38
2022/04/23 02:59:12;;;;;;;15.10;12.10;;;12.70;68.90;;;;;;7372580;19;20451;-38
2022/04/23 03:01:41;;;;;;;16.60;13.13;;;12.60;69.40;;;;;;7367088;19;20844;-38
2022/04/23 03:04:15;;;;;;;16.13;13.40;;;12.50;69.90;;;;;;7374074;19;20872;-38
2022/04/23 03:06:49;;;;;;;14.07;12.60;;;12.50;70.00;;;;;;7375581;19;20412;-38
2022/04/23 03:09:18;;;;;;;15.70;11.93;;;12.50;69.90;;;;;;7377925;19;20396;-39
2022/04/23 03:11:48;;;;;;;13.50;10.90;;;12.50;69.90;;;;;;7377134;19;20372;-38
2022/04/23 03:14:22;;;;;;;16.60;13.03;;;12.30;70.20;;;;;;7381379;19;20763;-38
2022/04/23 03:16:51;;;;;;;15.90;12.83;;;12.20;70.60;;;;;;7374299;19;20376;-38
2022/04/23 03:19:23;;;;;;;15.60;12.03;;;12.00;71.40;;;;;;7376689;19;20451;-38
2022/04/23 03:21:57;;;;;;;14.73;12.17;;;12.10;71.00;;;;;;7380160;19;20992;-39
2022/04/23 03:24:29;;;;;;;15.97;12.80;;;12.10;70.70;;;;;;7378848;19;20387;-39
2022/04/23 03:26:59;;;;;;;17.87;13.50;;;12.10;70.30;;;;;;7370250;19;21507;-38
2022/04/23 03:29:28;;;;;;;14.80;12.70;;;12.00;71.20;;;;;;7380371;19;20740;-38
2022/04/23 03:31:58;;;;;;;17.67;14.13;;;11.70;72.10;;;;;;7377336;19;20383;-39
2022/04/23 03:34:27;;;;;;;16.40;13.30;;;11.50;73.40;;;;;;7376111;19;21153;-38
2022/04/23 03:37:01;;;;;;;15.57;13.07;;;11.30;74.30;;;;;;7373977;19;20384;-38
2022/04/23 03:39:31;;;;;;;18.40;13.67;;;11.40;74.60;;;;;;7381628;19;20372;-38
2022/04/23 03:42:01;;;;;;;16.23;13.43;;;11.40;74.90;;;;;;7377625;19;20423;-38
2022/04/23 03:44:31;;;;;;;18.67;14.60;;;11.50;74.30;;;;;;7377680;19;20447;-38
2022/04/23 03:47:01;;;;;;;15.87;12.67;;;11.40;74.10;;;;;;7377268;19;20408;-38
2022/04/23 03:49:31;;;;;;;14.90;13.40;;;10.90;76.60;;;;;;7379178;19;20368;-38
2022/04/23 03:52:03;;;;;;;17.07;13.70;;;10.70;78.30;;;;;;7377264;19;20948;-38
2022/04/23 03:54:33;;;;;;;16.83;13.83;;;10.70;79.00;;;;;;7379041;19;20373;-38
2022/04/23 03:57:07;;;;;;;17.20;14.13;;;10.70;79.00;;;;;;7371460;19;20384;-38
2022/04/23 03:59:38;;;;;;;19.03;14.00;;;10.60;79.20;;;;;;7378268;19;20695;-47
2022/04/23 04:02:10;;;;;;;19.23;12.70;;;10.70;79.40;;;;;;7374311;19;20368;-47
2022/04/23 04:04:45;;;;;;;20.27;14.80;;;10.60;79.90;;;;;;7377220;19;20865;-48
2022/04/23 04:07:21;;;;;;;17.70;13.93;;;10.50;80.30;;;;;;7375241;19;20944;-48
2022/04/23 04:09:53;;;;;;;18.50;14.53;;;10.50;80.50;;;;;;7378259;19;20443;-48
2022/04/23 04:12:23;;;;;;;19.77;13.70;;;10.60;79.60;;;;;;7375961;19;20433;-47
2022/04/23 04:14:54;;;;;;;18.40;13.93;;;10.80;79.30;;;;;;7374194;19;20379;-48
2022/04/23 04:17:27;;;;;;;19.40;15.00;;;10.70;79.00;;;;;;7371882;19;20376;-47
2022/04/23 04:19:59;;;;;;;19.57;13.73;;;10.70;79.60;;;;;;7374134;19;20424;-47
2022/04/23 04:22:31;;;;;;;18.97;13.53;;;10.70;80.00;;;;;;7374423;19;20456;-48
2022/04/23 04:25:01;;;;;;;18.37;14.53;;;10.60;81.00;;;;;;7374067;19;20468;-48
2022/04/23 04:27:30;;;;;;;19.10;13.43;;;10.60;81.20;;;;;;7376457;19;20372;-47
2022/04/23 04:30:00;;;;;;;19.53;13.60;;;10.50;81.80;;;;;;7377723;19;20388;-47
2022/04/23 04:32:30;;;;;;;17.73;12.43;;;10.80;80.90;;;;;;7375137;19;20392;-49
2022/04/23 04:35:04;;;;;;;17.63;13.83;;;11.00;79.90;;;;;;7376952;19;20371;-48
2022/04/23 04:37:36;;;;;;;15.93;13.10;;;11.00;79.10;;;;;;7375689;19;20386;-48
2022/04/23 04:40:07;;;;;;;17.23;12.07;;;11.00;79.50;;;;;;7377498;19;20380;-49
2022/04/23 04:42:37;;;;;;;13.87;11.60;;;11.20;78.50;;;;;;7374763;19;20388;-48
2022/04/23 04:45:08;;;;;;;13.50;11.17;;;11.40;77.50;;;;;;7376662;19;20514;-49
2022/04/23 04:47:40;;;;;;;12.67;10.40;;;11.60;76.40;;;;;;7372016;19;20674;-48
2022/04/23 04:50:14;;;;;;;12.20;10.17;;;11.90;75.20;;;;;;7377282;19;21046;-48
2022/04/23 04:52:49;;;;;;;12.70;9.43;;;12.10;74.10;;;;;;7375548;19;20950;-48
2022/04/23 04:55:19;;;;;;;11.80;9.77;;;12.30;73.00;;;;;;7371662;19;20387;-48
2022/04/23 04:57:49;;;;;;;12.50;10.30;;;12.30;72.40;;;;;;7373689;19;20380;-48
2022/04/23 05:00:21;;;;;;;11.67;9.27;;;12.30;72.30;;;;;;7375160;19;21032;-48
2022/04/23 05:02:55;;;;;;;13.30;10.10;;;12.40;71.80;;;;;;7375779;19;20767;-48
2022/04/23 05:05:25;;;;;;;11.77;9.97;;;12.40;72.80;;;;;;7375461;19;20755;-47
2022/04/23 05:07:59;;;;;;;14.10;10.60;;;12.20;72.50;;;;;;7375774;19;20392;-48
2022/04/23 05:10:34;;;;;;;12.63;10.60;;;12.30;72.70;;;;;;7373873;19;20837;-48
2022/04/23 05:13:03;;;;;;;13.50;10.53;;;12.40;72.00;;;;;;7372625;19;20375;-48
2022/04/23 05:15:35;;;;;;;10.40;9.17;;;12.50;71.60;;;;;;7372209;19;20376;-47
2022/04/23 05:18:08;;;;;;;14.30;11.23;;;12.60;71.40;;;;;;7373561;19;20432;-48
2022/04/23 05:20:39;;;;;;;12.43;9.37;;;12.70;70.70;;;;;;7372754;19;20376;-48
2022/04/23 05:23:14;;;;;;;12.60;10.20;;;12.80;70.40;;;;;;7377069;19;20410;-48
2022/04/23 05:25:43;;;;;;;13.20;10.10;;;13.00;70.40;;;;;;7376559;19;20487;-48
2022/04/23 05:28:15;;;;;;;10.27;8.87;;;13.00;68.90;;;;;;7364326;19;20432;-48
2022/04/23 05:30:47;;;;;;;12.10;9.40;;;12.90;69.00;;;;;;7372016;19;20755;-48
2022/04/23 05:33:17;;;;;;;13.47;9.60;;;12.90;68.80;;;;;;7371556;19;20412;-48
2022/04/23 05:35:49;;;;;;;11.87;10.00;;;13.00;69.10;;;;;;7372879;19;21000;-48
2022/04/23 05:38:24;;;;;;;11.60;10.20;;;12.50;71.10;;;;;;7372084;19;20373;-48
2022/04/23 05:40:54;;;;;;;16.53;8.80;;;12.60;71.00;;;;;;7370913;19;20410;-48
2022/04/23 05:43:25;;;;;;;11.60;8.83;;;12.70;71.10;;;;;;7375775;19;20384;-47
2022/04/23 05:45:57;;;;;;;9.80;8.17;;;13.00;69.90;;;;;;7374618;19;20399;-48
2022/04/23 05:48:26;;;;;;;13.47;9.57;;;13.10;68.50;;;;;;7373364;19;20960;-47
2022/04/23 05:50:56;;;;;;;11.90;9.63;;;13.00;68.90;;;;;;7369164;19;20744;-47
2022/04/23 05:53:30;;;;;;;10.97;9.00;;;13.10;68.50;;;;;;7373986;19;20379;-47
2022/04/23 05:56:00;;;;;;;12.00;9.50;;;13.20;67.80;;;;;;7376172;19;20457;-49
2022/04/23 05:58:32;;;;;;;10.70;8.53;;;13.30;67.20;;;;;;7373259;19;20380;-48
2022/04/23 06:01:04;;;;;;;12.23;9.30;;;13.20;67.20;;;;;;7374129;19;20407;-48
2022/04/23 06:03:36;;;;;;;12.20;9.20;;;13.00;67.90;;;;;;7376231;19;20905;-48
2022/04/23 06:06:08;;;;;;;11.10;8.70;;;13.10;67.70;;;;;;7374673;19;20766;-49
2022/04/23 06:08:46;;;;;;;10.97;9.07;;;13.20;67.50;;;;;;7375600;19;20451;-48
2022/04/23 06:11:16;;;;;;;9.60;8.23;;;13.20;67.60;;;;;;7372005;19;20713;-47
2022/04/23 06:13:45;;;;;;;11.57;8.53;;;13.20;67.40;;;;;;7371825;19;20404;-49
2022/04/23 06:16:15;;;;;;;11.23;9.27;;;13.30;66.70;;;;;;7375428;19;20372;-48
2022/04/23 06:18:49;;;;;;;9.53;8.53;;;13.20;66.40;;;;;;7372885;19;20439;-48
2022/04/23 06:21:19;;;;;;;10.50;8.47;;;13.20;66.70;;;;;;7370950;19;20387;-47
2022/04/23 06:23:56;;;;;;;9.70;8.27;;;13.00;66.50;;;;;;7370414;19;20463;-48
2022/04/23 06:26:25;;;;;;;9.30;7.70;;;13.00;67.20;;;;;;7368980;19;20383;-47
2022/04/23 06:28:58;;;;;;;10.40;8.67;;;12.60;68.20;;;;;;7374381;19;20879;-48
2022/04/23 06:31:29;;;;;;;10.27;8.50;;;12.90;66.80;;;;;;7372386;19;20443;-48
2022/04/23 06:33:59;;;;;;;10.20;8.90;;;12.80;67.20;;;;;;7364379;19;20392;-48
2022/04/23 06:36:28;;;;;;;13.30;10.70;;;13.00;66.60;;;;;;7370531;19;20361;-48
2022/04/23 06:39:00;;;;;;;9.60;8.13;;;13.10;65.10;;;;;;7372733;19;20580;-48
2022/04/23 06:41:30;;;;;;;9.90;7.93;;;13.30;64.60;;;;;;7382246;19;20914;-47
2022/04/23 06:44:01;;;;;;;8.03;7.20;;;13.10;64.40;;;;;;7377292;19;21025;-47
2022/04/23 06:46:31;;;;;;;8.63;7.63;;;13.00;64.70;;;;;;7377757;19;20394;-48
2022/04/23 06:49:05;;;;;;;9.10;8.10;;;12.90;65.00;;;;;;7374050;19;20400;-48
2022/04/23 06:51:37;;;;;;;8.83;7.40;;;13.10;64.20;;;;;;7379897;19;20372;-48
2022/04/23 06:54:09;;;;;;;10.00;8.40;;;13.20;64.10;;;;;;7370030;19;20387;-48
2022/04/23 06:56:41;;;;;;;10.27;8.20;;;13.20;63.50;;;;;;7368092;19;20803;-46
2022/04/23 06:59:12;;;;;;;8.73;7.83;;;13.30;63.30;;;;;;7374034;19;20504;-46
2022/04/23 07:01:43;;;;;;;7.63;6.63;;;13.20;63.10;;;;;;7369638;19;20707;-48
2022/04/23 07:04:14;;;;;;;12.23;8.17;;;13.10;63.30;;;;;;7369295;19;20922;-46
2022/04/23 07:06:44;;;;;;;8.53;7.40;;;13.10;63.40;;;;;;7369174;19;20943;-46
2022/04/23 07:09:16;;;;;;;9.43;7.30;;;13.10;63.50;;;;;;7371611;19;20455;-46
2022/04/23 07:11:47;;;;;;;8.23;7.20;;;13.40;62.90;;;;;;7380473;19;20408;-47
2022/04/23 07:14:16;;;;;;;8.63;7.73;;;13.40;62.20;;;;;;7380156;19;20957;-46
2022/04/23 07:16:48;;;;;;;10.27;7.90;;;13.40;61.80;;;;;;7382737;19;20386;-46
2022/04/23 07:19:19;;;;;;;7.70;6.90;;;13.50;61.60;;;;;;7375919;19;21045;-46
2022/04/23 07:21:48;;;;;;;9.10;8.10;;;13.40;62.30;;;;;;7379507;19;20994;-46
2022/04/23 07:24:25;;;;;;;8.47;7.47;;;13.60;61.60;;;;;;7380633;19;20390;-46
2022/04/23 07:27:00;;;;;;;10.07;8.20;;;13.70;61.30;;;;;;7380476;19;20727;-46
2022/04/23 07:29:32;;;;;;;8.80;7.20;;;13.70;60.30;;;;;;7379445;19;20392;-47
2022/04/23 07:32:02;;;;;;;8.30;7.10;;;13.80;60.90;;;;;;7381058;19;20384;-46
2022/04/23 07:40:10;;;;;;;8.70;6.80;;;14.20;59.50;;;;;;7380379;19;21032;-46
2022/04/23 07:42:42;;;;;;;8.70;7.23;;;14.10;59.40;;;;;;7381017;19;20417;-46
2022/04/23 07:45:12;;;;;;;9.60;7.07;;;14.00;59.70;;;;;;7379469;19;20372;-46
2022/04/23 07:47:44;;;;;;;9.40;7.93;;;14.00;59.50;;;;;;7379951;19;20382;-46
2022/04/23 07:50:14;;;;;;;9.90;7.10;;;13.90;59.70;;;;;;7381417;19;20472;-46
2022/04/23 07:52:43;;;;;;;8.50;6.80;;;14.00;59.60;;;;;;7379785;19;20443;-46
2022/04/23 07:55:15;;;;;;;10.60;7.57;;;14.20;59.00;;;;;;7380966;19;20372;-46
2022/04/23 07:57:47;;;;;;;10.70;7.00;;;14.50;58.40;;;;;;7379788;19;20447;-47
2022/04/23 08:00:18;;;;;;;10.10;7.87;;;14.90;57.90;;;;;;7381213;19;20395;-46
2022/04/23 08:02:49;;;;;;;8.40;7.53;;;15.00;56.50;;;;;;7379688;19;20383;-46
2022/04/23 08:05:21;;;;;;;9.10;7.47;;;14.90;56.90;;;;;;7380448;19;20925;-47
2022/04/23 08:07:50;;;;;;;7.47;6.13;;;14.90;56.60;;;;;;7379468;19;20452;-46
2022/04/23 08:10:25;;;;;;;8.13;7.03;;;14.80;57.00;;;;;;7378790;19;20446;-46
2022/04/23 08:12:59;;;;;;;9.03;7.40;;;14.80;56.70;;;;;;7380887;19;20455;-46
2022/04/23 08:15:29;;;;;;;8.53;7.60;;;14.60;57.00;;;;;;7379190;19;20414;-48
2022/04/23 08:17:58;;;;;;;9.00;7.10;;;14.40;57.50;;;;;;7379051;19;21097;-46
2022/04/23 08:20:30;;;;;;;8.80;6.80;;;14.40;58.10;;;;;;7375647;19;20422;-46
2022/04/23 08:22:59;;;;;;;8.47;7.20;;;14.70;57.30;;;;;;7381048;19;20954;-46
2022/04/23 08:25:31;;;;;;;11.50;7.60;;;14.70;57.20;;;;;;7379230;19;20908;-48
2022/04/23 08:30:34;;;;;;;9.67;8.10;;;14.80;57.30;;;;;;7381321;19;20415;-46
2022/04/23 08:30:50;;;;;;;10.00;7.77;;;14.80;56.80;;;;;;7376283;19;21630;-46
2022/04/23 08:33:20;;;;;;;8.70;6.47;;;14.70;56.80;;;;;;7378589;19;20397;-46
2022/04/23 08:35:52;;;;;;;6.70;6.00;;;14.70;57.30;;;;;;7376072;19;20403;-47
2022/04/23 08:38:24;;;;;;;9.07;7.53;;;15.10;56.60;;;;;;7377597;19;21001;-46
2022/04/23 08:40:58;;;;;;;9.47;6.73;;;15.30;55.80;;;;;;7378320;19;20386;-47
2022/04/23 08:43:30;;;;;;;11.93;8.10;;;15.40;55.60;;;;;;7379218;19;20421;-47
2022/04/23 08:46:05;;;;;;;9.30;7.33;;;15.30;55.70;;;;;;7377620;19;20376;-48
2022/04/23 08:48:41;;;;;;;7.57;6.73;;;15.40;55.30;;;;;;7378765;19;20905;-46
2022/04/23 08:51:14;;;;;;;9.73;7.60;;;15.40;55.40;;;;;;7377229;19;20877;-47
2022/04/23 08:53:44;;;;;;;9.50;8.47;;;15.40;55.20;;;;;;7377204;19;20380;-46
2022/04/23 08:56:17;;;;;;;10.63;7.80;;;15.40;55.10;;;;;;7375718;19;20408;-48
2022/04/23 08:58:47;;;;;;;9.57;7.30;;;15.30;55.40;;;;;;7375246;19;20488;-46
2022/04/23 09:01:18;;;;;;;9.33;7.20;;;15.40;55.20;;;;;;7375566;19;20463;-47
2022/04/23 09:03:47;;;;;;;9.33;7.97;;;15.40;55.40;;;;;;7375246;19;20987;-47
2022/04/23 09:06:17;;;;;;;7.80;6.83;;;15.40;54.80;;;;;;7377316;19;20436;-46
2022/04/23 09:09:08;;;;;;;8.60;7.03;;;15.00;55.70;;;;;;7377249;19;20946;-46
2022/04/23 09:11:40;;;;;;;9.00;7.73;;;15.00;55.90;;;;;;7375793;19;20400;-46
2022/04/23 09:14:12;;;;;;;11.53;8.60;;;15.00;56.10;;;;;;7377485;19;20383;-46
2022/04/23 09:25:05;;;;;;;10.40;7.53;;;15.70;54.20;;;;;;7377181;19;20412;-47
2022/04/23 09:27:43;;;;;;;11.53;7.80;;;15.80;54.00;;;;;;7375483;19;20512;-47
2022/04/23 09:30:14;;;;;;;9.57;8.20;;;16.20;53.90;;;;;;7376705;19;20423;-47
2022/04/23 09:33:00;;;;;;;12.67;9.07;;;16.70;52.70;;;;;;7377085;19;20415;-48
2022/04/23 09:35:32;;;;;;;9.30;7.10;;;16.60;52.30;;;;;;7376525;19;20436;-47
2022/04/23 09:38:18;;;;;;;8.90;7.40;;;16.60;52.20;;;;;;7375895;19;20497;-47
2022/04/23 09:40:54;;;;;;;9.83;7.00;;;16.70;52.00;;;;;;7375803;19;20389;-49
2022/04/23 09:43:31;;;;;;;12.07;6.80;;;16.40;52.30;;;;;;7377604;19;20479;-47
2022/04/23 09:46:07;;;;;;;8.17;6.90;;;16.60;51.90;;;;;;7374912;19;20958;-47
2022/04/23 09:48:38;;;;;;;8.87;6.00;;;16.80;51.70;;;;;;7376447;19;20376;-47
2022/04/23 09:51:08;;;;;;;10.30;8.13;;;16.80;51.40;;;;;;7374685;19;20412;-47
2022/04/23 09:53:39;;;;;;;9.17;7.43;;;16.50;51.50;;;;;;7374671;19;20416;-48
2022/04/23 09:56:10;;;;;;;8.67;7.50;;;16.60;51.80;;;;;;7373751;19;20981;-47
2022/04/23 09:58:45;;;;;;;9.60;7.57;;;16.40;51.90;;;;;;7374186;19;20416;-47
2022/04/23 10:01:16;;;;;;;8.23;6.47;;;16.60;52.10;;;;;;7376392;19;20392;-47
2022/04/23 10:03:49;;;;;;;6.27;5.60;;;16.80;52.20;;;;;;7375026;19;21014;-47
2022/04/23 10:06:25;;;;;;;6.80;5.90;;;16.90;51.40;;;;;;7375033;19;20415;-47
2022/04/23 10:08:59;;;;;;;7.20;6.40;;;17.10;51.00;;;;;;7375642;19;20968;-48
2022/04/23 10:11:30;;;;;;;8.97;7.03;;;17.00;50.70;;;;;;7375872;19;20438;-47
2022/04/23 10:14:06;;;;;;;6.90;6.17;;;16.70;51.10;;;;;;7377600;19;20377;-47
2022/04/23 10:16:37;;;;;;;6.00;4.90;;;16.40;52.40;;;;;;7382113;19;21480;-47
2022/04/23 10:19:07;;;;;;;6.77;5.30;;;16.40;52.80;;;;;;7378588;19;21040;-47
2022/04/23 10:21:43;;;;;;;8.63;5.80;;;16.20;52.30;;;;;;7382357;19;20368;-46
2022/04/23 10:24:18;;;;;;;6.80;4.93;;;16.20;52.80;;;;;;7382654;19;20418;-47
2022/04/23 10:26:54;;;;;;;5.00;4.50;;;16.40;52.40;;;;;;7383324;19;20407;-47
2022/04/23 10:29:27;;;;;;;8.60;5.63;;;16.60;51.80;;;;;;7382149;19;20954;-47
2022/04/23 10:32:21;;;;;;;4.73;4.30;;;16.60;51.80;;;;;;7380748;19;20383;-47
2022/04/23 10:34:53;;;;;;;5.87;4.40;;;16.70;52.00;;;;;;7381961;19;20381;-47
2022/04/23 10:37:28;;;;;;;6.40;4.77;;;16.80;51.60;;;;;;7381074;19;20376;-47
2022/04/23 10:40:18;;;;;;;5.87;4.60;;;17.10;50.70;;;;;;7380999;19;20837;-47
2022/04/23 10:43:12;;;;;;;9.10;5.20;;;17.30;50.60;;;;;;7381595;19;20395;-47
2022/04/23 10:45:45;;;;;;;5.10;4.60;;;17.20;50.50;;;;;;7383241;19;20376;-47
2022/04/23 10:48:32;;;;;;;5.97;4.33;;;17.30;50.10;;;;;;7382344;19;20376;-48
2022/04/23 10:51:08;;;;;;;4.87;4.27;;;17.60;49.80;;;;;;7382501;19;20380;-47
2022/04/23 10:53:54;;;;;;;6.10;4.87;;;17.60;49.40;;;;;;7381997;19;20387;-47
2022/04/23 10:56:36;;;;;;;5.43;4.70;;;17.60;49.40;;;;;;7382703;19;20383;-47
2022/04/23 10:59:06;;;;;;;8.23;5.00;;;17.40;49.70;;;;;;7379430;19;20804;-47
2022/04/23 11:01:38;;;;;;;5.80;4.63;;;17.10;50.40;;;;;;7381564;19;20427;-47
2022/04/23 11:04:14;;;;;;;5.73;5.13;;;17.00;50.90;;;;;;7380355;19;20401;-47
2022/04/23 11:12:36;;;;;;;8.57;5.53;;;17.00;50.80;;;;;;7377540;19;20399;-47
2022/04/23 11:15:19;;;;;;;9.80;5.43;;;17.10;50.90;;;;;;7380718;19;20917;-47
2022/04/23 11:17:59;;;;;;;5.70;5.10;;;17.10;50.50;;;;;;7380650;19;20449;-47
2022/04/23 11:20:31;;;;;;;7.53;5.87;;;17.20;50.50;;;;;;7379759;19;20403;-47
2022/04/23 11:23:04;;;;;;;7.57;5.60;;;17.30;50.40;;;;;;7379924;19;20375;-47
2022/04/23 11:25:36;;;;;;;8.77;5.43;;;17.20;50.70;;;;;;7380421;19;20404;-47
2022/04/23 11:28:23;;;;;;;6.23;5.40;;;17.10;50.40;;;;;;7379708;19;20427;-47
2022/04/23 11:30:53;;;;;;;7.33;6.20;;;17.10;50.90;;;;;;7380536;19;20714;-47
2022/04/23 11:33:25;;;;;;;7.20;5.97;;;17.20;50.90;;;;;;7379344;19;20443;-47
2022/04/23 11:36:00;;;;;;;8.33;6.40;;;17.10;50.60;;;;;;7381298;19;20503;-47
2022/04/23 11:38:32;;;;;;;6.07;5.10;;;17.10;50.60;;;;;;7378976;19;20418;-45
2022/04/23 11:41:04;;;;;;;8.83;6.17;;;17.10;50.80;;;;;;7381903;19;20423;-47
2022/04/23 11:43:37;;;;;;;7.20;5.80;;;17.20;50.40;;;;;;7382115;19;20854;-47
2022/04/23 11:46:09;;;;;;;5.70;5.03;;;17.30;50.90;;;;;;7381175;19;20376;-46
2022/04/23 11:48:49;;;;;;;6.93;5.60;;;17.40;50.50;;;;;;7379685;19;20496;-47
2022/04/23 11:51:23;;;;;;;8.13;6.30;;;17.60;49.90;;;;;;7376623;19;20403;-47
2022/04/23 11:54:02;;;;;;;5.90;5.23;;;17.30;49.80;;;;;;7380600;19;20429;-49
2022/04/23 11:56:33;;;;;;;8.50;5.73;;;17.50;50.00;;;;;;7379614;19;20399;-48
2022/04/23 11:59:09;;;;;;;7.80;5.40;;;17.40;50.10;;;;;;7377302;19;20384;-48
2022/04/23 12:01:47;;;;;;;9.87;6.47;;;17.40;50.40;;;;;;7378683;19;20380;-47
2022/04/23 12:04:21;;;;;;;6.17;5.20;;;17.40;50.30;;;;;;7378891;19;20960;-47
2022/04/23 12:06:56;;;;;;;8.40;6.10;;;17.60;50.10;;;;;;7377747;19;20866;-47
2022/04/23 12:09:29;;;;;;;6.90;5.90;;;17.60;49.80;;;;;;7377057;19;20384;-47
2022/04/23 12:12:02;;;;;;;8.10;6.70;;;17.60;49.80;;;;;;7379564;19;20427;-47
2022/04/23 12:14:32;;;;;;;6.93;6.23;;;17.70;49.70;;;;;;7380382;19;20957;-47
2022/04/23 12:17:10;;;;;;;7.87;6.30;;;17.70;49.50;;;;;;7378269;19;20364;-47
2022/04/23 12:19:47;;;;;;;7.80;5.90;;;17.80;49.20;;;;;;7375762;19;20489;-39
2022/04/23 12:22:26;;;;;;;6.10;5.50;;;17.90;49.30;;;;;;7379594;19;20391;-39
2022/04/23 12:25:13;;;;;;;8.63;6.27;;;18.00;49.20;;;;;;7379866;19;20422;-39
2022/04/23 12:27:58;;;;;;;7.90;5.80;;;18.00;49.50;;;;;;7377306;19;20375;-39
2022/04/23 12:41:40;;;;;;;8.00;5.90;;;18.20;49.00;;;;;;7378988;19;20955;-39
2022/04/23 12:44:19;;;;;;;6.20;5.47;;;18.20;48.90;;;;;;7377959;19;20414;-39
2022/04/23 12:46:59;;;;;;;7.47;6.77;;;18.20;48.80;;;;;;7379085;19;20372;-39
2022/04/23 12:49:48;;;;;;;7.67;6.77;;;18.10;49.00;;;;;;7378955;19;20387;-40
2022/04/23 12:52:26;;;;;;;9.47;7.20;;;17.90;49.20;;;;;;7376185;19;20436;-47
2022/04/23 12:55:17;;;;;;;7.13;6.20;;;17.50;50.10;;;;;;7377567;19;20371;-47
2022/04/23 12:57:49;;;;;;;7.50;5.80;;;17.70;50.00;;;;;;7376305;19;20388;-47
2022/04/23 13:00:22;;;;;;;7.43;6.73;;;17.80;49.80;;;;;;7372998;19;20387;-48
2022/04/23 13:02:58;;;;;;;7.40;6.23;;;18.00;49.40;;;;;;7377552;19;20822;-47
2022/04/23 13:05:28;;;;;;;6.00;5.40;;;17.90;49.60;;;;;;7377419;19;20678;-45
2022/04/23 13:10:44;;;;;;;7.10;5.90;;;17.80;49.40;;;;;;7377431;19;20372;-47
2022/04/23 13:13:13;;;;;;;8.07;5.90;;;17.70;49.90;;;;;;7378410;19;20377;-47
2022/04/23 13:15:43;;;;;;;6.17;5.57;;;18.00;49.60;;;;;;7375955;19;20914;-47
2022/04/23 13:18:12;;;;;;;6.93;6.13;;;18.10;49.70;;;;;;7349724;19;20530;-47
2022/04/23 13:20:44;;;;;;;7.20;6.27;;;18.10;49.30;;;;;;7375280;19;20432;-46
2022/04/23 13:23:17;;;;;;;6.13;5.53;;;18.10;49.30;;;;;;7376516;19;20937;-45
2022/04/23 13:25:49;;;;;;;7.43;6.30;;;18.00;49.60;;;;;;7375651;19;20380;-47
2022/04/23 13:28:25;;;;;;;7.50;6.70;;;18.00;49.80;;;;;;7375629;19;20399;-47
2022/04/23 13:30:55;;;;;;;7.00;5.93;;;18.00;49.80;;;;;;7375647;19;20922;-47
2022/04/23 13:33:24;;;;;;;7.47;6.77;;;17.90;49.80;;;;;;7377335;19;20408;-48
2022/04/23 13:35:54;;;;;;;10.07;6.50;;;17.80;49.70;;;;;;7373846;19;20368;-48
2022/04/23 13:38:31;;;;;;;7.87;6.93;;;17.80;50.20;;;;;;7375595;19;20375;-47
2022/04/23 13:41:02;;;;;;;6.87;6.23;;;17.90;50.10;;;;;;7377559;19;20413;-47